sensor_id;sensor_type;location;lat;lon;timestamp;temperature;humidity
16313;DHT22;8265;52.622;13.296;2022-12-17T00:01:03;-2.70;94.90
16313;DHT22;8265;52.622;13.296;2022-12-17T00:06:24;-2.70;94.70
16313;DHT22;8265;52.622;13.296;2022-12-17T00:11:45;-2.80;94.80
16313;DHT22;8265;52.622;13.296;2022-12-17T00:17:06;-2.90;95.60
16313;DHT22;8265;52.622;13.296;2022-12-17T00:22:27;-2.80;95.50
16313;DHT22;8265;52.622;13.296;2022-12-17T00:27:48;-2.80;95.50
16313;DHT22;8265;52.622;13.296;2022-12-17T00:33:10;-2.80;95.50
16313;DHT22;8265;52.622;13.296;2022-12-17T00:38:30;-2.80;95.60
16313;DHT22;8265;52.622;13.296;2022-12-17T00:43:51;-2.40;94.10
16313;DHT22;8265;52.622;13.296;2022-12-17T00:49:12;-2.50;93.60
16313;DHT22;8265;52.622;13.296;2022-12-17T00:54:33;-2.70;94.10
16313;DHT22;8265;52.622;13.296;2022-12-17T00:59:54;-2.70;94.00
16313;DHT22;8265;52.622;13.296;2022-12-17T01:05:15;-2.70;94.50
16313;DHT22;8265;52.622;13.296;2022-12-17T01:10:36;-2.90;94.50
16313;DHT22;8265;52.622;13.296;2022-12-17T01:16:00;-2.90;95.10
16313;DHT22;8265;52.622;13.296;2022-12-17T01:21:18;-2.80;95.00
16313;DHT22;8265;52.622;13.296;2022-12-17T01:26:39;-2.90;95.10
16313;DHT22;8265;52.622;13.296;2022-12-17T01:32:00;-2.90;95.20
16313;DHT22;8265;52.622;13.296;2022-12-17T01:37:20;-2.90;94.10
16313;DHT22;8265;52.622;13.296;2022-12-17T01:42:46;-3.10;95.30
16313;DHT22;8265;52.622;13.296;2022-12-17T01:48:03;-3.00;95.00
16313;DHT22;8265;52.622;13.296;2022-12-17T01:53:24;-3.00;94.80
16313;DHT22;8265;52.622;13.296;2022-12-17T01:58:44;-3.10;95.10
16313;DHT22;8265;52.622;13.296;2022-12-17T02:04:06;-3.10;95.10
16313;DHT22;8265;52.622;13.296;2022-12-17T02:09:38;-3.10;94.90
16313;DHT22;8265;52.622;13.296;2022-12-17T02:14:51;-3.00;94.80
16313;DHT22;8265;52.622;13.296;2022-12-17T02:30:50;-3.20;95.50
16313;DHT22;8265;52.622;13.296;2022-12-17T02:36:11;-3.10;95.40
16313;DHT22;8265;52.622;13.296;2022-12-17T02:41:52;-3.10;95.50
16313;DHT22;8265;52.622;13.296;2022-12-17T02:46:53;-3.20;95.70
16313;DHT22;8265;52.622;13.296;2022-12-17T02:52:16;-3.10;95.60
16313;DHT22;8265;52.622;13.296;2022-12-17T02:57:35;-3.00;95.40
16313;DHT22;8265;52.622;13.296;2022-12-17T03:02:56;-2.90;95.40
16313;DHT22;8265;52.622;13.296;2022-12-17T03:08:17;-3.00;95.70
16313;DHT22;8265;52.622;13.296;2022-12-17T03:13:38;-2.90;95.50
16313;DHT22;8265;52.622;13.296;2022-12-17T03:19:00;-3.00;95.20
16313;DHT22;8265;52.622;13.296;2022-12-17T03:24:20;-3.10;95.70
16313;DHT22;8265;52.622;13.296;2022-12-17T03:29:41;-3.10;96.00
16313;DHT22;8265;52.622;13.296;2022-12-17T03:35:03;-2.90;95.50
16313;DHT22;8265;52.622;13.296;2022-12-17T03:40:23;-3.00;95.40
16313;DHT22;8265;52.622;13.296;2022-12-17T03:45:50;-3.00;95.40
16313;DHT22;8265;52.622;13.296;2022-12-17T03:51:05;-3.00;95.30
16313;DHT22;8265;52.622;13.296;2022-12-17T03:56:26;-2.90;94.60
16313;DHT22;8265;52.622;13.296;2022-12-17T04:01:47;-3.10;94.30
16313;DHT22;8265;52.622;13.296;2022-12-17T04:07:08;-3.10;94.70
16313;DHT22;8265;52.622;13.296;2022-12-17T04:12:29;-3.10;94.60
16313;DHT22;8265;52.622;13.296;2022-12-17T04:17:50;-3.20;94.70
16313;DHT22;8265;52.622;13.296;2022-12-17T04:23:11;-3.20;94.60
16313;DHT22;8265;52.622;13.296;2022-12-17T04:28:32;-3.20;94.10
16313;DHT22;8265;52.622;13.296;2022-12-17T04:33:53;-3.40;95.10
16313;DHT22;8265;52.622;13.296;2022-12-17T04:39:14;-3.40;95.10
16313;DHT22;8265;52.622;13.296;2022-12-17T04:44:35;-3.20;94.90
16313;DHT22;8265;52.622;13.296;2022-12-17T04:49:56;-3.20;95.20
16313;DHT22;8265;52.622;13.296;2022-12-17T04:55:17;-3.20;94.90
16313;DHT22;8265;52.622;13.296;2022-12-17T05:00:38;-3.20;94.20
16313;DHT22;8265;52.622;13.296;2022-12-17T05:06:00;-3.00;94.20
16313;DHT22;8265;52.622;13.296;2022-12-17T05:11:20;-3.00;93.60
16313;DHT22;8265;52.622;13.296;2022-12-17T05:16:41;-3.10;94.30
16313;DHT22;8265;52.622;13.296;2022-12-17T05:22:02;-3.00;93.60
16313;DHT22;8265;52.622;13.296;2022-12-17T05:27:23;-3.20;94.00
16313;DHT22;8265;52.622;13.296;2022-12-17T05:32:44;-3.40;95.20
16313;DHT22;8265;52.622;13.296;2022-12-17T05:38:06;-3.20;94.70
16313;DHT22;8265;52.622;13.296;2022-12-17T05:43:26;-3.20;94.00
16313;DHT22;8265;52.622;13.296;2022-12-17T05:48:47;-3.20;93.90
16313;DHT22;8265;52.622;13.296;2022-12-17T05:54:08;-3.20;94.10
16313;DHT22;8265;52.622;13.296;2022-12-17T05:59:29;-3.30;94.30
16313;DHT22;8265;52.622;13.296;2022-12-17T06:04:50;-3.30;94.00
16313;DHT22;8265;52.622;13.296;2022-12-17T06:10:11;-3.30;93.70
16313;DHT22;8265;52.622;13.296;2022-12-17T06:15:32;-3.50;94.20
16313;DHT22;8265;52.622;13.296;2022-12-17T06:20:53;-3.60;95.00
16313;DHT22;8265;52.622;13.296;2022-12-17T06:26:14;-3.40;94.50
16313;DHT22;8265;52.622;13.296;2022-12-17T06:31:35;-3.40;94.40
16313;DHT22;8265;52.622;13.296;2022-12-17T06:36:56;-3.40;93.50
16313;DHT22;8265;52.622;13.296;2022-12-17T06:42:17;-3.60;94.40
16313;DHT22;8265;52.622;13.296;2022-12-17T06:47:38;-3.50;94.70
16313;DHT22;8265;52.622;13.296;2022-12-17T06:53:03;-3.40;94.20
16313;DHT22;8265;52.622;13.296;2022-12-17T06:58:20;-3.40;94.00
16313;DHT22;8265;52.622;13.296;2022-12-17T07:03:41;-3.40;93.80
16313;DHT22;8265;52.622;13.296;2022-12-17T07:09:02;-3.50;93.70
16313;DHT22;8265;52.622;13.296;2022-12-17T07:14:23;-3.50;94.30
16313;DHT22;8265;52.622;13.296;2022-12-17T07:19:44;-3.60;94.70
16313;DHT22;8265;52.622;13.296;2022-12-17T07:25:06;-3.50;94.10
16313;DHT22;8265;52.622;13.296;2022-12-17T07:30:26;-3.60;94.60
16313;DHT22;8265;52.622;13.296;2022-12-17T07:35:47;-3.50;94.50
16313;DHT22;8265;52.622;13.296;2022-12-17T07:41:08;-3.60;94.60
16313;DHT22;8265;52.622;13.296;2022-12-17T07:46:29;-3.60;94.60
16313;DHT22;8265;52.622;13.296;2022-12-17T07:51:51;-3.70;94.70
16313;DHT22;8265;52.622;13.296;2022-12-17T07:57:12;-3.80;94.60
16313;DHT22;8265;52.622;13.296;2022-12-17T08:02:32;-3.70;94.70
16313;DHT22;8265;52.622;13.296;2022-12-17T08:07:53;-3.60;94.30
16313;DHT22;8265;52.622;13.296;2022-12-17T08:13:14;-3.60;94.10
16313;DHT22;8265;52.622;13.296;2022-12-17T08:18:35;-3.50;93.30
16313;DHT22;8265;52.622;13.296;2022-12-17T08:23:56;-3.60;93.70
16313;DHT22;8265;52.622;13.296;2022-12-17T08:29:17;-3.60;94.00
16313;DHT22;8265;52.622;13.296;2022-12-17T08:34:38;-3.60;94.00
16313;DHT22;8265;52.622;13.296;2022-12-17T08:39:59;-3.50;93.30
16313;DHT22;8265;52.622;13.296;2022-12-17T08:45:20;-3.50;93.20
16313;DHT22;8265;52.622;13.296;2022-12-17T08:50:41;-3.50;92.70
16313;DHT22;8265;52.622;13.296;2022-12-17T08:56:02;-3.60;92.70
16313;DHT22;8265;52.622;13.296;2022-12-17T09:01:23;-3.50;91.90
16313;DHT22;8265;52.622;13.296;2022-12-17T09:06:44;-3.70;93.30
16313;DHT22;8265;52.622;13.296;2022-12-17T09:12:05;-3.60;92.90
16313;DHT22;8265;52.622;13.296;2022-12-17T09:17:26;-3.30;92.30
16313;DHT22;8265;52.622;13.296;2022-12-17T09:22:47;-3.40;92.00
16313;DHT22;8265;52.622;13.296;2022-12-17T09:28:08;-3.60;92.70
16313;DHT22;8265;52.622;13.296;2022-12-17T09:33:29;-3.60;92.90
16313;DHT22;8265;52.622;13.296;2022-12-17T09:38:50;-3.60;92.90
16313;DHT22;8265;52.622;13.296;2022-12-17T09:49:32;-3.40;91.70
16313;DHT22;8265;52.622;13.296;2022-12-17T09:54:53;-3.50;92.00
16313;DHT22;8265;52.622;13.296;2022-12-17T10:05:35;-3.60;93.60
16313;DHT22;8265;52.622;13.296;2022-12-17T10:10:56;-3.50;93.60
16313;DHT22;8265;52.622;13.296;2022-12-17T10:16:24;-3.60;91.60
16313;DHT22;8265;52.622;13.296;2022-12-17T10:21:38;-3.60;91.80
16313;DHT22;8265;52.622;13.296;2022-12-17T10:27:06;-3.60;92.20
16313;DHT22;8265;52.622;13.296;2022-12-17T10:32:21;-3.30;90.60
16313;DHT22;8265;52.622;13.296;2022-12-17T10:37:41;-3.50;91.70
16313;DHT22;8265;52.622;13.296;2022-12-17T10:43:02;-3.40;91.40
16313;DHT22;8265;52.622;13.296;2022-12-17T10:48:27;-3.60;92.40
16313;DHT22;8265;52.622;13.296;2022-12-17T10:53:47;-3.60;92.60
16313;DHT22;8265;52.622;13.296;2022-12-17T10:59:09;-3.60;92.70
16313;DHT22;8265;52.622;13.296;2022-12-17T11:04:30;-3.60;92.00
16313;DHT22;8265;52.622;13.296;2022-12-17T11:09:50;-3.60;92.60
16313;DHT22;8265;52.622;13.296;2022-12-17T11:15:18;-3.50;92.10
16313;DHT22;8265;52.622;13.296;2022-12-17T11:20:53;-3.60;92.30
16313;DHT22;8265;52.622;13.296;2022-12-17T11:36:37;-3.40;91.50
16313;DHT22;8265;52.622;13.296;2022-12-17T11:41:57;-3.60;92.50
16313;DHT22;8265;52.622;13.296;2022-12-17T11:58:08;-3.70;92.60
16313;DHT22;8265;52.622;13.296;2022-12-17T12:19:35;-3.60;93.00
16313;DHT22;8265;52.622;13.296;2022-12-17T12:24:45;-3.50;92.10
16313;DHT22;8265;52.622;13.296;2022-12-17T12:30:04;-3.40;91.70
16313;DHT22;8265;52.622;13.296;2022-12-17T12:35:23;-3.60;91.70
16313;DHT22;8265;52.622;13.296;2022-12-17T12:51:29;-3.80;93.80
16313;DHT22;8265;52.622;13.296;2022-12-17T12:56:46;-3.80;93.90
16313;DHT22;8265;52.622;13.296;2022-12-17T13:07:29;-3.80;94.60
16313;DHT22;8265;52.622;13.296;2022-12-17T13:12:49;-3.60;94.20
16313;DHT22;8265;52.622;13.296;2022-12-17T13:23:32;-3.80;94.00
16313;DHT22;8265;52.622;13.296;2022-12-17T13:34:22;-3.80;93.30
16313;DHT22;8265;52.622;13.296;2022-12-17T13:39:50;-4.00;93.80
16313;DHT22;8265;52.622;13.296;2022-12-17T13:44:55;-4.00;92.50
16313;DHT22;8265;52.622;13.296;2022-12-17T13:50:21;-4.30;93.30
16313;DHT22;8265;52.622;13.296;2022-12-17T13:55:37;-4.10;94.00
16313;DHT22;8265;52.622;13.296;2022-12-17T14:01:08;-4.30;94.00
16313;DHT22;8265;52.622;13.296;2022-12-17T14:06:19;-4.30;94.30
16313;DHT22;8265;52.622;13.296;2022-12-17T14:11:40;-4.30;94.30
16313;DHT22;8265;52.622;13.296;2022-12-17T14:17:01;-4.30;94.00
16313;DHT22;8265;52.622;13.296;2022-12-17T14:22:26;-4.50;94.50
16313;DHT22;8265;52.622;13.296;2022-12-17T14:28:33;-4.50;95.40
16313;DHT22;8265;52.622;13.296;2022-12-17T14:33:18;-4.20;94.10
16313;DHT22;8265;52.622;13.296;2022-12-17T14:38:25;-4.30;94.30
16313;DHT22;8265;52.622;13.296;2022-12-17T14:43:46;-4.20;93.70
16313;DHT22;8265;52.622;13.296;2022-12-17T14:49:11;-4.00;93.20
16313;DHT22;8265;52.622;13.296;2022-12-17T14:54:28;-4.20;94.00
16313;DHT22;8265;52.622;13.296;2022-12-17T14:59:49;-4.30;94.40
16313;DHT22;8265;52.622;13.296;2022-12-17T15:05:13;-4.40;94.70
16313;DHT22;8265;52.622;13.296;2022-12-17T15:10:31;-4.60;94.90
16313;DHT22;8265;52.622;13.296;2022-12-17T15:15:52;-4.60;95.00
16313;DHT22;8265;52.622;13.296;2022-12-17T15:21:13;-4.70;95.30
16313;DHT22;8265;52.622;13.296;2022-12-17T15:26:33;-4.70;95.10
16313;DHT22;8265;52.622;13.296;2022-12-17T15:31:54;-4.80;95.40
16313;DHT22;8265;52.622;13.296;2022-12-17T15:37:16;-4.80;95.20
16313;DHT22;8265;52.622;13.296;2022-12-17T15:42:36;-4.90;95.20
16313;DHT22;8265;52.622;13.296;2022-12-17T15:47:57;-4.90;94.60
16313;DHT22;8265;52.622;13.296;2022-12-17T15:53:18;-4.90;94.80
16313;DHT22;8265;52.622;13.296;2022-12-17T15:58:39;-4.80;94.90
16313;DHT22;8265;52.622;13.296;2022-12-17T16:04:00;-4.80;95.20
16313;DHT22;8265;52.622;13.296;2022-12-17T16:09:21;-4.90;95.40
16313;DHT22;8265;52.622;13.296;2022-12-17T16:14:42;-4.90;95.30
16313;DHT22;8265;52.622;13.296;2022-12-17T16:20:04;-5.00;95.30
16313;DHT22;8265;52.622;13.296;2022-12-17T16:25:24;-4.60;94.20
16313;DHT22;8265;52.622;13.296;2022-12-17T16:30:55;-4.60;94.60
16313;DHT22;8265;52.622;13.296;2022-12-17T16:36:07;-4.90;94.60
16313;DHT22;8265;52.622;13.296;2022-12-17T16:41:27;-5.00;95.10
16313;DHT22;8265;52.622;13.296;2022-12-17T16:46:48;-4.90;95.50
16313;DHT22;8265;52.622;13.296;2022-12-17T16:52:09;-4.80;95.30
16313;DHT22;8265;52.622;13.296;2022-12-17T16:57:30;-4.90;95.60
16313;DHT22;8265;52.622;13.296;2022-12-17T17:02:51;-4.80;95.70
16313;DHT22;8265;52.622;13.296;2022-12-17T17:08:12;-4.70;95.50
16313;DHT22;8265;52.622;13.296;2022-12-17T17:13:33;-4.80;96.20
16313;DHT22;8265;52.622;13.296;2022-12-17T17:18:54;-4.80;95.90
16313;DHT22;8265;52.622;13.296;2022-12-17T17:24:15;-4.80;95.80
16313;DHT22;8265;52.622;13.296;2022-12-17T17:29:36;-4.90;95.40
16313;DHT22;8265;52.622;13.296;2022-12-17T17:34:57;-4.90;95.80
16313;DHT22;8265;52.622;13.296;2022-12-17T17:40:18;-4.80;95.80
16313;DHT22;8265;52.622;13.296;2022-12-17T17:45:38;-4.60;94.70
16313;DHT22;8265;52.622;13.296;2022-12-17T17:51:01;-4.80;95.10
16313;DHT22;8265;52.622;13.296;2022-12-17T17:56:24;-4.70;95.40
16313;DHT22;8265;52.622;13.296;2022-12-17T18:01:42;-4.80;95.80
16313;DHT22;8265;52.622;13.296;2022-12-17T18:07:02;-4.80;95.70
16313;DHT22;8265;52.622;13.296;2022-12-17T18:12:24;-4.70;95.40
16313;DHT22;8265;52.622;13.296;2022-12-17T18:17:46;-4.20;95.90
16313;DHT22;8265;52.622;13.296;2022-12-17T18:23:06;-4.40;94.00
16313;DHT22;8265;52.622;13.296;2022-12-17T18:28:27;-4.70;94.50
16313;DHT22;8265;52.622;13.296;2022-12-17T18:33:49;-4.80;95.50
16313;DHT22;8265;52.622;13.296;2022-12-17T18:39:12;-4.70;95.40
16313;DHT22;8265;52.622;13.296;2022-12-17T18:44:30;-4.70;94.80
16313;DHT22;8265;52.622;13.296;2022-12-17T18:49:50;-4.80;94.80
16313;DHT22;8265;52.622;13.296;2022-12-17T18:55:11;-4.80;95.10
16313;DHT22;8265;52.622;13.296;2022-12-17T19:00:32;-5.00;95.20
16313;DHT22;8265;52.622;13.296;2022-12-17T19:05:53;-4.80;95.40
16313;DHT22;8265;52.622;13.296;2022-12-17T19:11:16;-4.90;94.90
16313;DHT22;8265;52.622;13.296;2022-12-17T19:16:35;-5.00;95.30
16313;DHT22;8265;52.622;13.296;2022-12-17T19:21:56;-5.00;95.00
16313;DHT22;8265;52.622;13.296;2022-12-17T19:27:17;-5.00;95.80
16313;DHT22;8265;52.622;13.296;2022-12-17T19:32:38;-5.10;95.70
16313;DHT22;8265;52.622;13.296;2022-12-17T19:37:59;-5.00;96.10
16313;DHT22;8265;52.622;13.296;2022-12-17T19:43:20;-5.00;95.60
16313;DHT22;8265;52.622;13.296;2022-12-17T19:48:41;-4.90;95.90
16313;DHT22;8265;52.622;13.296;2022-12-17T19:54:02;-4.60;94.80
16313;DHT22;8265;52.622;13.296;2022-12-17T19:59:23;-4.90;94.70
16313;DHT22;8265;52.622;13.296;2022-12-17T20:04:44;-5.00;95.30
16313;DHT22;8265;52.622;13.296;2022-12-17T20:10:05;-5.10;95.70
16313;DHT22;8265;52.622;13.296;2022-12-17T20:15:26;-5.00;95.40
16313;DHT22;8265;52.622;13.296;2022-12-17T20:20:47;-4.90;94.60
16313;DHT22;8265;52.622;13.296;2022-12-17T20:26:09;-4.80;95.50
16313;DHT22;8265;52.622;13.296;2022-12-17T20:31:29;-5.00;94.50
16313;DHT22;8265;52.622;13.296;2022-12-17T20:36:50;-5.10;95.30
16313;DHT22;8265;52.622;13.296;2022-12-17T20:42:11;-5.00;94.40
16313;DHT22;8265;52.622;13.296;2022-12-17T20:47:32;-5.10;94.70
16313;DHT22;8265;52.622;13.296;2022-12-17T20:52:53;-5.30;95.20
16313;DHT22;8265;52.622;13.296;2022-12-17T20:58:14;-5.20;93.60
16313;DHT22;8265;52.622;13.296;2022-12-17T21:03:35;-5.30;94.70
16313;DHT22;8265;52.622;13.296;2022-12-17T21:08:56;-5.40;94.50
16313;DHT22;8265;52.622;13.296;2022-12-17T21:14:17;-5.40;94.30
16313;DHT22;8265;52.622;13.296;2022-12-17T21:19:38;-5.60;94.90
16313;DHT22;8265;52.622;13.296;2022-12-17T21:24:59;-5.40;95.20
16313;DHT22;8265;52.622;13.296;2022-12-17T21:30:20;-5.20;93.20
16313;DHT22;8265;52.622;13.296;2022-12-17T21:35:41;-5.40;93.90
16313;DHT22;8265;52.622;13.296;2022-12-17T21:41:05;-5.40;94.30
16313;DHT22;8265;52.622;13.296;2022-12-17T21:46:23;-5.30;93.80
16313;DHT22;8265;52.622;13.296;2022-12-17T21:51:43;-5.00;93.80
16313;DHT22;8265;52.622;13.296;2022-12-17T21:57:04;-5.20;92.60
16313;DHT22;8265;52.622;13.296;2022-12-17T22:02:25;-4.90;93.60
16313;DHT22;8265;52.622;13.296;2022-12-17T22:07:46;-5.40;93.10
16313;DHT22;8265;52.622;13.296;2022-12-17T22:13:08;-5.40;93.60
16313;DHT22;8265;52.622;13.296;2022-12-17T22:18:28;-5.50;94.00
16313;DHT22;8265;52.622;13.296;2022-12-17T22:23:49;-5.20;94.20
16313;DHT22;8265;52.622;13.296;2022-12-17T22:29:11;-5.20;93.50
16313;DHT22;8265;52.622;13.296;2022-12-17T22:34:31;-5.50;94.00
16313;DHT22;8265;52.622;13.296;2022-12-17T22:39:52;-5.60;93.70
16313;DHT22;8265;52.622;13.296;2022-12-17T22:45:13;-5.50;93.40
16313;DHT22;8265;52.622;13.296;2022-12-17T22:50:34;-5.60;93.30
16313;DHT22;8265;52.622;13.296;2022-12-17T22:55:55;-5.60;93.70
16313;DHT22;8265;52.622;13.296;2022-12-17T23:01:16;-5.60;93.40
16313;DHT22;8265;52.622;13.296;2022-12-17T23:06:37;-5.50;93.90
16313;DHT22;8265;52.622;13.296;2022-12-17T23:11:58;-5.60;93.10
16313;DHT22;8265;52.622;13.296;2022-12-17T23:17:19;-5.60;92.70
16313;DHT22;8265;52.622;13.296;2022-12-17T23:22:40;-5.80;93.80
16313;DHT22;8265;52.622;13.296;2022-12-17T23:28:01;-5.60;94.40
16313;DHT22;8265;52.622;13.296;2022-12-17T23:33:22;-5.20;92.40
16313;DHT22;8265;52.622;13.296;2022-12-17T23:38:43;-5.70;93.00
16313;DHT22;8265;52.622;13.296;2022-12-17T23:44:04;-5.80;93.50
16313;DHT22;8265;52.622;13.296;2022-12-17T23:49:25;-6.00;93.60
16313;DHT22;8265;52.622;13.296;2022-12-17T23:54:46;-5.80;93.10
